• Join FlightAware (Why Join?)
  • Login
  • US Flag 
06:46AM EDT


 

Airport Tracker/Info


-or-


 

Live Flight TrackerFlight Track Log ✈ AAL297 ✈ 27-Apr-2013 ✈ KDFW - KLAX

Flight Track Log - Related Links

Times and Time Zones

All times are in EDT time to prevent confusion due to time zone crossing. See the AAL297 flight status page for this flight to view local times or setup timezone preferences in your user account.

Time Position Orientation Groundspeed Altitude Reporting Facility
EDT Latitude Longitude Course Direction KTS MPH feet Rate Location/Type
02:35PM 32.9220 -97.0480 359° North 173 199 2,200  Level FlightAware
02:35PM 32.9440 -97.0530 349° North 211 243 3,000 2,280 Climbing FlightAware
02:36PM 32.9730 -97.0650 341° North 236 272 4,300 3,120 Climbing FlightAware
02:36PM 32.9990 -97.0800 334° Northwest 242 278 5,900 3,600 Climbing FlightAware
02:36PM 33.0050 -97.0900 306° West 244 281 6,400 3,360 Climbing FlightAware
02:37PM 33.0090 -97.1160 280° West 248 285 7,600 3,720 Climbing FlightAware
02:37PM 33.0060 -97.1530 264° West 252 290 9,200 2,280 Climbing FlightAware
02:38PM 32.9990 -97.2210 263° West 317 365 10,300 1,260 Climbing FlightAware
02:39PM 32.9840 -97.2910 256° West 370 426 11,000 2,160 Climbing FlightAware
02:39PM 32.9590 -97.3810 252° West 376 433 13,400 3,240 Climbing FlightAware
02:40PM 32.9380 -97.4580 252° West 378 435 15,600 3,240 Climbing FlightAware
02:41PM 32.9150 -97.5460 253° West 377 434 18,000 2,940 Climbing FlightAware
02:41PM 32.8940 -97.6230 252° West 380 437 19,800 2,460 Climbing FlightAware
02:42PM 32.8720 -97.7020 252° West 390 449 21,300 2,280 Climbing FlightAware
02:43PM 32.8620 -97.8110 264° West 402 463 23,100 2,100 Climbing FlightAware
02:44PM 32.8620 -97.8920 270° West 411 473 24,300 1,740 Climbing FlightAware
02:44PM 32.8610 -98.0190 269° West 421 484 25,900 1,980 Climbing FlightAware
02:45PM 32.8600 -98.1170 269° West 417 480 27,600 2,220 Climbing FlightAware
02:46PM 32.8610 -97.9470 90° East 423 487 28,700 2,400 Climbing FlightAware
02:47PM 32.8570 -98.3170 269° West 406 467 31,000 2,040 Climbing FlightAware
02:47PM 32.8560 -98.4070 269° West 413 475 32,000 720 Climbing FlightAware
02:48PM 32.8550 -98.4960 269° West 417 480 32,000 1,020 Level FlightAware
02:49PM 32.8530 -98.6020 269° West 406 467 33,500 2,040 Climbing FlightAware
02:49PM 32.8520 -98.6910 269° West 399 459 34,900 1,740 Climbing FlightAware
02:50PM 32.8500 -98.7880 269° West 398 458 36,000 1,440 Climbing FlightAware
02:51PM 32.8490 -98.8750 269° West 396 456 37,000 1,320 Climbing FlightAware
02:51PM 32.8470 -98.9640 268° West 396 456 37,800 720 Climbing FlightAware
02:52PM 32.8460 -99.0480 269° West 395 455 38,000 120 Climbing FlightAware
02:53PM 32.8440 -99.1340 268° West 393 452 38,000  Level FlightAware
02:54PM 32.8430 -99.2330 269° West 393 452 38,000  Level FlightAware
02:54PM 32.8410 -99.3300 269° West 395 455 38,000  Level FlightAware
02:55PM 32.8390 -99.4180 268° West 396 456 38,000  Level FlightAware
02:56PM 32.8370 -99.5160 269° West 396 456 38,000  Level FlightAware
02:56PM 32.8390 -99.6000 272° West 397 457 38,000  Level FlightAware
02:57PM 32.8640 -99.6820 290° West 404 465 38,000  Level FlightAware
02:58PM 32.8970 -99.7690 294° West 405 466 38,000  Level FlightAware
02:58PM 32.9260 -99.8440 295° West 405 466 38,000  Level FlightAware
02:59PM 32.9570 -99.9250 295° West 405 466 38,000  Level FlightAware
03:00PM 32.9830 -99.9940 294° West 405 466 38,000  Level FlightAware
03:00PM 33.0080 -100.0640 293° West 405 466 38,000  Level FlightAware
03:01PM 33.0410 -100.1510 294° West 405 466 38,000  Level FlightAware
03:02PM 33.0670 -100.2200 294° West 405 466 38,000  Level FlightAware
03:03PM 33.0930 -100.2900 294° West 405 466 38,000  Level FlightAware
03:03PM 33.1190 -100.3590 294° West 405 466 38,000  Level FlightAware
03:04PM 33.1450 -100.4280 294° West 405 466 38,000  Level FlightAware
03:05PM 33.1770 -100.5150 294° West 405 466 38,000  Level FlightAware
03:05PM 33.2030 -100.5850 294° West 405 466 38,000  Level FlightAware
03:06PM 33.2290 -100.6540 294° West 405 466 38,000  Level FlightAware
03:07PM 33.2550 -100.7240 294° West 405 466 38,000  Level FlightAware
03:07PM 33.2810 -100.7940 294° West 405 466 38,000  Level FlightAware
03:08PM 33.3130 -100.8810 294° West 405 466 38,000  Level FlightAware
03:09PM 33.3811 -101.1447 294° West 401 461 38,000  Level Fort Worth Center
03:10PM 33.4164 -101.2881 286° West 401 461 38,000  Level Fort Worth Center
03:11PM 33.4397 -101.4086 283° West 406 467 38,000  Level Fort Worth Center
03:12PM 33.4747 -101.5497 287° West 411 473 38,000  Level Fort Worth Center
03:13PM 33.5078 -101.6833 287° West 411 473 38,000  Level Fort Worth Center
03:14PM 33.5367 -101.8142 285° West 411 473 38,000  Level Fort Worth Center
03:15PM 33.5675 -101.9431 286° West 411 473 38,000  Level Fort Worth Center
03:16PM 33.5919 -102.0764 282° West 411 473 38,000  Level Fort Worth Center
03:17PM 33.6222 -102.2075 286° West 411 473 38,000  Level Fort Worth Center
03:18PM 33.6528 -102.3389 286° West 411 473 38,000  Level Fort Worth Center
03:19PM 33.6808 -102.4703 284° West 411 473 38,000  Level Fort Worth Center
03:21PM 33.7342 -102.6933 286° West 407 468 38,000  Level Albuquerque Center
03:22PM 33.7625 -102.8256 284° West 410 472 38,000  Level Albuquerque Center
03:23PM 33.7925 -102.9592 285° West 414 476 38,000  Level Albuquerque Center
03:24PM 33.8208 -103.0933 284° West 414 476 38,000  Level Albuquerque Center
03:25PM 33.8564 -103.2539 285° West 415 478 38,000  Level Albuquerque Center
03:26PM 33.8847 -103.3919 284° West 422 486 38,000  Level Albuquerque Center
03:27PM 33.9133 -103.5281 284° West 422 486 38,000  Level Albuquerque Center
03:28PM 33.9439 -103.6750 284° West 423 487 38,000  Level Albuquerque Center
03:29PM 33.9753 -103.8250 284° West 429 494 38,000  Level Albuquerque Center
03:30PM 34.0044 -103.9650 284° West 421 484 38,000  Level Albuquerque Center
03:31PM 34.0336 -104.1031 284° West 420 483 38,000  Level Albuquerque Center
03:32PM 34.0628 -104.2428 284° West 424 488 38,000  Level Albuquerque Center
03:33PM 34.0908 -104.3842 284° West 427 491 38,000  Level Albuquerque Center
03:34PM 34.1192 -104.5222 284° West 423 487 38,000  Level Albuquerque Center
03:35PM 34.1478 -104.6614 284° West 422 486 38,000  Level Albuquerque Center
03:36PM 34.1767 -104.8028 284° West 426 490 38,000  Level Albuquerque Center
03:37PM 34.2044 -104.9436 283° West 426 490 38,000  Level Albuquerque Center
03:38PM 34.2322 -105.0850 283° West 427 491 38,000  Level Albuquerque Center
03:39PM 34.2608 -105.2264 284° West 428 493 38,000  Level Albuquerque Center
03:45PM 34.4050 -105.9640 284° West 430 495 38,000  Level FlightAware
03:45PM 34.4290 -106.0870 283° West 431 496 38,000  Level FlightAware
03:46PM 34.4460 -106.1810 282° West 432 497 38,000  Level FlightAware
03:47PM 34.4660 -106.2880 283° West 432 497 38,000  Level FlightAware
03:47PM 34.4840 -106.3820 283° West 434 499 38,000  Level FlightAware
03:48PM 34.5000 -106.4730 282° West 435 501 38,000  Level FlightAware
03:49PM 34.5210 -106.5850 283° West 436 502 38,000  Level FlightAware
03:50PM 34.5380 -106.6790 282° West 437 503 38,000  Level FlightAware
03:50PM 34.5550 -106.7750 282° West 437 503 38,000  Level FlightAware
03:51PM 34.5740 -106.8820 282° West 437 503 38,000  Level FlightAware
03:52PM 34.5920 -106.9810 282° West 436 502 38,000  Level FlightAware
03:52PM 34.6110 -107.0860 282° West 435 501 38,000  Level FlightAware
03:53PM 34.6280 -107.1820 282° West 435 501 38,000  Level FlightAware
03:54PM 34.6450 -107.2770 282° West 435 501 38,000  Level FlightAware
03:54PM 34.6640 -107.3870 282° West 436 502 38,000  Level FlightAware
03:55PM 34.6800 -107.4810 282° West 436 502 38,000  Level FlightAware
03:56PM 34.6980 -107.5830 282° West 436 502 38,000  Level FlightAware
03:57PM 34.7160 -107.6850 282° West 437 503 38,000  Level FlightAware
03:57PM 34.7340 -107.7920 282° West 439 505 38,000  Level FlightAware
03:58PM 34.7510 -107.8910 282° West 439 505 38,000  Level FlightAware
03:59PM 34.7680 -107.9880 282° West 441 507 38,000  Level FlightAware
03:59PM 34.7850 -108.0900 281° West 442 509 38,000  Level FlightAware
04:00PM 34.8010 -108.1850 282° West 441 507 38,000  Level FlightAware
04:01PM 34.8210 -108.3040 282° West 442 509 38,000  Level FlightAware
04:02PM 34.8390 -108.4150 281° West 442 509 38,000  Level FlightAware
04:02PM 34.8580 -108.5290 282° West 446 513 38,000  Level FlightAware
04:03PM 34.8780 -108.6480 282° West 449 517 38,000  Level FlightAware
04:04PM 34.8900 -108.7240 281° West 449 517 38,000  Level FlightAware
04:04PM 34.9030 -108.8080 281° West 449 517 38,000  Level FlightAware
04:05PM 34.9200 -108.9140 281° West 449 517 38,000  Level FlightAware
04:06PM 34.9340 -108.9980 282° West 449 517 38,000  Level FlightAware
04:07PM 34.9590 -109.1510 281° West 455 524 38,000  Level FlightAware
04:07PM 34.9730 -109.2370 281° West 455 524 38,000  Level FlightAware
04:08PM 34.9870 -109.3230 281° West 455 524 38,000  Level FlightAware
04:09PM 35.0040 -109.4300 281° West 455 524 38,000  Level FlightAware
04:09PM 35.0170 -109.5160 280° West 455 524 38,000  Level FlightAware
04:10PM 35.0310 -109.6010 281° West 455 524 38,000  Level FlightAware
04:11PM 35.0450 -109.6870 281° West 455 524 38,000  Level FlightAware
04:11PM 35.0580 -109.7730 280° West 455 524 38,000  Level FlightAware
04:12PM 35.0750 -109.8800 281° West 455 524 38,000  Level FlightAware
04:13PM 35.0890 -109.9660 281° West 455 524 38,000  Level FlightAware
04:14PM 35.1030 -110.0520 281° West 455 524 38,000  Level FlightAware
04:14PM 35.1160 -110.1380 280° West 455 524 38,000  Level FlightAware
04:15PM 35.1300 -110.2240 281° West 455 524 38,000  Level FlightAware
04:16PM 35.1470 -110.3310 281° West 455 524 38,000  Level FlightAware
04:18PM 34.8260 -110.9840 239° Southwest 456 525 38,000  Level FlightAware
04:19PM 34.8160 -111.1040 264° West 455 524 38,000  Level FlightAware
04:20PM 34.8060 -111.2380 265° West 454 522 38,000  Level FlightAware
04:21PM 34.7980 -111.3390 265° West 454 522 38,000  Level FlightAware
04:21PM 34.7890 -111.4400 264° West 453 521 38,000  Level FlightAware
04:22PM 34.7810 -111.5400 264° West 453 521 38,000  Level FlightAware
04:23PM 34.7680 -111.6940 264° West 452 520 38,000  Level FlightAware
04:24PM 34.7590 -111.7920 264° West 452 520 38,000  Level FlightAware
04:25PM 34.7460 -111.9360 264° West 453 521 38,000  Level FlightAware
04:25PM 34.7320 -112.0330 260° West 451 519 38,000  Level FlightAware
04:26PM 34.7150 -112.1400 259° West 451 519 38,000  Level FlightAware
04:27PM 34.7010 -112.2440 261° West 451 519 38,000  Level FlightAware
04:27PM 34.6850 -112.3550 260° West 450 518 38,000  Level FlightAware
04:28PM 34.6700 -112.4580 260° West 449 517 38,000  Level FlightAware
04:29PM 34.6540 -112.5640 260° West 448 516 38,000  Level FlightAware
04:29PM 34.6390 -112.6610 259° West 449 517 38,000  Level FlightAware
04:30PM 34.6230 -112.7610 259° West 450 518 38,000  Level FlightAware
04:31PM 34.6050 -112.8790 260° West 451 519 38,000  Level FlightAware
04:31PM 34.5910 -112.9630 259° West 450 518 38,000  Level FlightAware
04:32PM 34.5720 -113.0860 259° West 450 518 38,000  Level FlightAware
04:33PM 34.5570 -113.1810 259° West 449 517 38,000  Level FlightAware
04:34PM 34.5400 -113.2840 259° West 450 518 38,000  Level FlightAware
04:34PM 34.5220 -113.3970 259° West 449 517 38,000  Level FlightAware
04:35PM 34.5060 -113.4960 259° West 448 516 38,000  Level FlightAware
04:36PM 34.4880 -113.6050 259° West 448 516 38,000  Level FlightAware
04:36PM 34.4750 -113.6850 259° West 448 516 38,000  Level FlightAware
04:37PM 34.4570 -113.7950 259° West 447 514 38,000  Level FlightAware
04:38PM 34.4400 -113.9160 260° West 448 516 38,000  Level FlightAware
04:39PM 34.4270 -114.0120 261° West 448 516 38,000  Level FlightAware
04:39PM 34.4140 -114.1090 261° West 449 517 38,000  Level FlightAware
04:40PM 34.3980 -114.2210 260° West 448 516 38,000  Level FlightAware
04:41PM 34.3850 -114.3100 260° West 448 516 38,000  Level FlightAware
04:41PM 34.3700 -114.4180 260° West 448 516 38,000  Level FlightAware
04:42PM 34.3530 -114.5330 260° West 447 514 38,000  Level FlightAware
04:43PM 34.3390 -114.6300 260° West 447 514 38,000  Level FlightAware
04:43PM 34.3250 -114.7260 260° West 447 514 38,000  Level FlightAware
04:44PM 34.3090 -114.8370 260° West 447 514 38,000  Level FlightAware
04:45PM 34.2940 -114.9430 260° West 448 516 38,000  Level FlightAware
04:46PM 34.2780 -115.0470 259° West 449 517 38,000  Level FlightAware
04:46PM 34.2640 -115.1450 260° West 450 518 38,000  Level FlightAware
04:47PM 34.2480 -115.2510 260° West 450 518 38,000  Level FlightAware
04:48PM 34.2330 -115.3530 260° West 451 519 38,000  Level FlightAware
04:48PM 34.2150 -115.4680 259° West 452 520 38,000  Level FlightAware
04:49PM 34.2000 -115.5690 260° West 453 521 38,000  Level FlightAware
04:50PM 34.1840 -115.6720 259° West 453 521 38,000  Level FlightAware
04:50PM 34.1680 -115.7750 259° West 453 521 38,000  Level FlightAware
04:51PM 34.1520 -115.8770 259° West 453 521 38,000 -120 Level FlightAware
04:52PM 34.1350 -115.9890 260° West 452 520 37,900 -1,080 Descending FlightAware
04:53PM 34.1200 -116.0830 259° West 453 521 36,500 -2,520 Descending FlightAware
04:53PM 34.1020 -116.1970 259° West 452 520 34,400 -3,420 Descending FlightAware
04:54PM 34.0860 -116.2960 259° West 467 537 31,700 -3,900 Descending FlightAware
04:55PM 34.0690 -116.4020 259° West 473 544 29,200 -3,480 Descending FlightAware
04:55PM 34.0500 -116.5200 259° West 464 534 26,800 -3,480 Descending FlightAware
04:56PM 34.0330 -116.6230 259° West 465 535 24,300 -3,600 Descending FlightAware
04:57PM 34.0150 -116.7320 259° West 462 532 21,700 -3,480 Descending FlightAware
04:57PM 33.9990 -116.8340 259° West 457 526 19,400 -3,120 Descending FlightAware
04:58PM 33.9830 -116.9310 259° West 442 509 17,600 -1,800 Descending FlightAware
04:59PM 33.9650 -117.0360 258° West 396 456 16,900 -600 Descending FlightAware
05:00PM 33.9530 -117.1190 260° West 349 402 16,800 -180 Descending FlightAware
05:00PM 33.9450 -117.2010 263° West 334 384 16,700 -660 Descending FlightAware
05:01PM 33.9390 -117.2750 264° West 330 380 15,900 -1,200 Descending FlightAware
05:02PM 33.9330 -117.3470 264° West 328 377 15,100 -1,200 Descending FlightAware
05:02PM 33.9350 -117.3760 275° West 320 368 14,800 -1,140 Descending FlightAware
05:03PM 33.9590 -117.4480 292° West 314 361 14,000 -1,320 Descending FlightAware
05:03PM 33.9830 -117.5140 294° West 320 368 13,000 -1,320 Descending FlightAware
05:04PM 34.0050 -117.5770 293° West 315 362 12,300 -1,140 Descending FlightAware
05:05PM 34.0080 -117.6560 273° West 305 351 11,400 -1,380 Descending FlightAware
05:05PM 34.0010 -117.7240 263° West 301 346 10,400 -1,560 Descending FlightAware
05:06PM 33.9960 -117.7730 263° West 300 345 9,600 -1,500 Descending FlightAware
05:06PM 33.9940 -117.7960 264° West 299 344 9,300 -900 Descending FlightAware
05:07PM 33.9890 -117.8390 262° West 283 326 9,000 -600 Descending FlightAware
05:07PM 33.9870 -117.8600 263° West 271 312 8,900 -540 Descending FlightAware
05:07PM 33.9830 -117.9030 264° West 255 293 8,600 -1,020 Descending FlightAware
05:08PM 33.9790 -117.9400 263° West 253 291 8,000 -1,500 Descending FlightAware
05:08PM 33.9770 -117.9600 263° West 252 290 7,600 -1,500 Descending FlightAware
05:08PM 33.9730 -118.0020 263° West 252 290 6,900 -1,380 Descending FlightAware
05:09PM 33.9710 -118.0140 259° West 252 290 6,700 -1,200 Descending FlightAware
05:09PM 33.9670 -118.0560 263° West 248 285 6,100 -1,020 Descending FlightAware
05:10PM 33.9630 -118.0970 263° West 231 266 5,700 -780 Descending FlightAware
05:10PM 33.9620 -118.1100 265° West 225 259 5,600 -900 Descending FlightAware
05:10PM 33.9580 -118.1440 262° West 201 231 5,100 -1,200 Descending FlightAware
05:11PM 33.9560 -118.1620 262° West 192 221 4,700 -1,920 Descending FlightAware
05:11PM 33.9530 -118.1920 263° West 185 213 3,700 -2,160 Descending FlightAware
05:11PM 33.9510 -118.2120 263° West 185 213 2,900 -1,800 Descending FlightAware
05:12PM 33.9480 -118.2410 263° West 176 203 2,200 -960 Descending FlightAware
05:12PM 33.9460 -118.2590 262° West 176 203 1,900 -300 Descending FlightAware
05:13PM 33.9430 -118.2820 261° West 176 203 1,900 -660 Level FlightAware
05:14PM 33.9400 -118.3200 265° West 151 174 1,200 -1,080 Descending FlightAware